createdAt,value
2017-12-15T00:01:37.649Z,4.40
2017-12-15T00:04:05.780Z,4.40
2017-12-15T00:06:34.807Z,4.30
2017-12-15T00:09:06.433Z,4.30
2017-12-15T00:11:34.638Z,4.30
2017-12-15T00:14:02.797Z,4.30
2017-12-15T00:16:32.824Z,4.40
2017-12-15T00:19:01.930Z,4.40
2017-12-15T00:21:30.077Z,4.40
2017-12-15T00:23:58.258Z,4.40
2017-12-15T00:26:26.427Z,4.50
2017-12-15T00:28:54.575Z,4.50
2017-12-15T00:31:22.728Z,4.50
2017-12-15T00:33:50.884Z,4.50
2017-12-15T00:36:19.128Z,4.50
2017-12-15T00:38:47.311Z,4.50
2017-12-15T00:41:15.444Z,4.50
2017-12-15T00:43:43.592Z,4.50
2017-12-15T00:46:11.807Z,4.50
2017-12-15T00:48:40.002Z,4.50
2017-12-15T00:51:08.145Z,4.40
2017-12-15T00:53:36.290Z,4.30
2017-12-15T00:56:04.502Z,4.30
2017-12-15T17:43:52.031Z,1.50
2017-12-15T17:46:21.172Z,1.50
2017-12-15T17:48:49.336Z,1.50
2017-12-15T17:51:18.389Z,1.60
2017-12-15T17:53:46.561Z,1.60
2017-12-15T17:56:14.824Z,1.60
2017-12-15T17:58:42.986Z,1.60
2017-12-15T18:01:11.128Z,1.70
2017-12-15T18:03:40.197Z,1.60
2017-12-15T18:06:12.252Z,1.60
2017-12-15T18:08:41.934Z,1.70
2017-12-15T18:11:10.150Z,1.60
2017-12-15T18:13:40.150Z,1.70
2017-12-15T18:16:08.426Z,1.70
2017-12-15T18:18:37.370Z,1.60
2017-12-15T18:21:05.959Z,1.50
2017-12-15T18:23:35.031Z,1.50
2017-12-15T18:26:04.082Z,1.60
2017-12-15T18:28:32.834Z,1.50
2017-12-15T18:31:01.009Z,1.50
2017-12-15T18:33:29.725Z,1.50
2017-12-15T18:36:01.528Z,1.50
2017-12-15T18:38:34.226Z,1.40
2017-12-15T18:41:02.392Z,1.40
2017-12-15T18:43:32.563Z,1.40
2017-12-15T18:46:02.518Z,1.40
2017-12-15T18:48:30.697Z,1.30
2017-12-15T18:51:03.758Z,1.30
2017-12-15T18:53:34.430Z,1.40
2017-12-15T18:56:05.745Z,1.30
2017-12-15T18:58:33.897Z,1.30
2017-12-15T19:01:02.073Z,1.20
2017-12-15T19:03:30.880Z,1.10
2017-12-15T19:05:59.652Z,1.10
2017-12-15T19:08:27.805Z,1.10
2017-12-15T19:10:55.973Z,1.10
2017-12-15T19:13:24.130Z,1.10
2017-12-15T19:15:53.294Z,1.00
2017-12-15T19:18:22.214Z,0.90
2017-12-15T19:20:50.354Z,0.80
2017-12-15T19:23:19.237Z,0.70
2017-12-15T19:25:48.403Z,0.60
2017-12-15T19:28:16.569Z,0.50
2017-12-15T19:30:46.880Z,0.40
2017-12-15T19:33:15.151Z,0.20
2017-12-15T19:35:45.476Z,0.20
2017-12-15T19:38:14.636Z,0.10
2017-12-15T19:40:43.804Z,0.10
2017-12-15T19:43:12.236Z,0.10
2017-12-15T19:45:42.550Z,0.10
2017-12-15T19:48:10.826Z,0.20
2017-12-15T19:50:44.503Z,0.40
2017-12-15T19:53:13.041Z,0.40
2017-12-15T19:55:42.215Z,0.40
2017-12-15T19:58:11.222Z,0.50
2017-12-15T20:00:39.393Z,0.50
2017-12-15T20:03:08.446Z,0.50
2017-12-15T20:05:38.183Z,0.60
2017-12-15T20:08:06.326Z,0.70
2017-12-15T20:10:35.619Z,0.70
2017-12-15T20:13:03.796Z,0.70
2017-12-15T20:15:32.841Z,0.70
2017-12-15T20:18:01.002Z,0.80
2017-12-15T20:20:30.857Z,0.80
2017-12-15T20:22:59.055Z,0.80
2017-12-15T20:25:32.050Z,0.70
2017-12-15T20:28:00.475Z,0.60
2017-12-15T20:30:30.165Z,0.50
2017-12-15T20:32:59.947Z,0.50
2017-12-15T20:35:30.090Z,0.50
2017-12-15T20:37:58.331Z,0.60
2017-12-15T20:40:27.476Z,0.50
2017-12-15T20:42:55.707Z,0.60
2017-12-15T20:45:24.962Z,0.60
2017-12-15T20:47:53.106Z,0.60
2017-12-15T20:50:22.836Z,0.60
2017-12-15T20:52:50.965Z,0.60
2017-12-15T20:55:19.189Z,0.70
2017-12-15T20:57:47.610Z,0.70
2017-12-15T21:00:17.363Z,0.60
2017-12-15T21:02:45.518Z,0.40
2017-12-15T21:05:15.371Z,0.20
2017-12-15T21:07:43.524Z,0.10
2017-12-15T21:10:12.454Z,-0.10
2017-12-15T21:12:40.617Z,-0.10
2017-12-15T21:15:11.630Z,-0.10
2017-12-15T21:17:39.824Z,-0.10
2017-12-15T21:20:07.988Z,-0.10
2017-12-15T21:22:37.124Z,0.10
2017-12-15T21:25:10.462Z,0.00
2017-12-15T21:27:38.626Z,0.10
2017-12-15T21:30:09.401Z,-0.10
2017-12-15T21:32:37.561Z,-0.20
2017-12-15T21:35:11.092Z,-0.40
2017-12-15T21:37:39.234Z,-0.40
2017-12-15T21:40:07.500Z,-0.40
2017-12-15T21:42:36.002Z,-0.30
2017-12-15T21:45:15.387Z,-0.30
2017-12-15T21:47:44.129Z,-0.30
2017-12-15T21:50:12.466Z,-0.10
2017-12-15T21:52:40.659Z,-0.10
2017-12-15T21:55:09.842Z,0.00
2017-12-15T21:57:40.425Z,0.10
2017-12-15T22:00:09.443Z,0.00
2017-12-15T22:02:38.465Z,0.10
2017-12-15T22:05:11.132Z,-0.10
2017-12-15T22:07:39.294Z,-0.30
2017-12-15T22:10:07.569Z,-0.40
2017-12-15T22:12:35.744Z,-0.40
2017-12-15T22:15:04.005Z,-0.50
2017-12-15T22:17:33.255Z,-0.40
2017-12-15T22:20:01.433Z,-0.30
2017-12-15T22:22:30.434Z,-0.30
2017-12-15T22:24:58.643Z,-0.30
2017-12-15T22:27:26.824Z,-0.30
2017-12-15T22:29:54.985Z,-0.20
2017-12-15T22:32:24.427Z,-0.20
2017-12-15T22:34:52.917Z,-0.10
2017-12-15T22:37:21.659Z,-0.10
2017-12-15T22:39:49.816Z,-0.30
2017-12-15T22:42:18.144Z,-0.50
2017-12-15T22:44:47.075Z,-0.70
2017-12-15T22:47:15.234Z,-0.70
2017-12-15T22:49:43.388Z,-0.70
2017-12-15T22:52:11.545Z,-0.80
2017-12-15T22:54:39.728Z,-0.80
2017-12-15T22:57:07.875Z,-0.80
2017-12-15T22:59:36.030Z,-0.70
2017-12-15T23:02:04.188Z,-0.60
2017-12-15T23:04:32.340Z,-0.60
2017-12-15T23:07:00.652Z,-0.50
2017-12-15T23:09:29.124Z,-0.50
2017-12-15T23:11:57.283Z,-0.60
2017-12-15T23:14:26.198Z,-0.90
2017-12-15T23:16:54.354Z,-0.90
2017-12-15T23:19:23.058Z,-0.90
2017-12-15T23:21:51.263Z,-1.00
2017-12-15T23:24:20.225Z,-1.00
2017-12-15T23:26:49.472Z,-1.00
2017-12-15T23:29:18.228Z,-0.90
2017-12-15T23:31:46.386Z,-0.80
2017-12-15T23:34:14.575Z,-0.80
2017-12-15T23:36:42.840Z,-0.70
2017-12-15T23:39:11.030Z,-0.50
2017-12-15T23:41:39.192Z,-0.50
2017-12-15T23:44:07.324Z,-0.60
2017-12-15T23:46:35.859Z,-0.70
2017-12-15T23:49:04.010Z,-0.80
2017-12-15T23:51:32.164Z,-0.80
2017-12-15T23:54:01.649Z,-0.60
2017-12-15T23:56:41.841Z,-0.60
2017-12-15T23:59:10.017Z,-0.50
